Time;durP1;ratioP1;P1;durP2;ratioP2;P2;SDS_P1;SDS_P2;PMS_P1;PMS_P2;Temp;Humidity;BMP_temperature;BMP_pressure;BME280_temperature;BME280_humidity;BME280_pressure;Samples;Min_cycle;Max_cycle;Signal;HPM_P1;HPM_P2
2022/09/29 06:28:46;;;;;;;;;0.00;0.00;;;;;;;;6090725;22;4243871;-90
2022/09/29 06:31:13;;;;;;;;;0.00;0.00;;;;;;;;6248636;22;45295;-92
2022/09/29 06:33:38;;;;;;;;;16.67;16.67;;;;;;;;6245226;22;45337;-89
2022/09/29 06:38:50;;;;;;;;;0.00;0.00;;;;;;;;6271273;22;45352;-90
2022/09/29 06:41:16;;;;;;;;;0.00;0.00;;;;;;;;6281723;22;45404;-90
2022/09/29 06:43:41;;;;;;;;;0.00;0.00;;;;;;;;6272526;22;45313;-90
2022/09/29 06:46:06;;;;;;;;;0.00;0.00;;;;;;;;6272558;22;45973;-90
2022/09/29 06:48:31;;;;;;;;;0.00;0.00;;;;;;;;6243440;22;45337;-90
2022/09/29 06:50:56;;;;;;;;;0.00;0.00;;;;;;;;6243844;22;45319;-90
2022/09/29 06:53:22;;;;;;;;;0.00;0.00;;;;;;;;6244525;22;45259;-90
2022/09/29 06:55:51;;;;;;;;;0.00;0.00;;;;;;;;6271772;22;45512;-91
2022/09/29 06:58:16;;;;;;;;;0.00;0.00;;;;;;;;6273044;22;45612;-90
2022/09/29 07:00:41;;;;;;;;;0.00;0.00;;;;;;;;6281781;22;45823;-91
2022/09/29 07:03:06;;;;;;;;;0.00;0.00;;;;;;;;6247107;22;45621;-90
2022/09/29 07:05:33;;;;;;;;;0.00;0.00;;;;;;;;6246151;22;48132;-91
2022/09/29 07:07:58;;;;;;;;;0.00;0.00;;;;;;;;6272293;22;45344;-91
2022/09/29 07:10:23;;;;;;;;;0.00;0.00;;;;;;;;6244108;22;45680;-90
2022/09/29 07:12:49;;;;;;;;;0.00;0.00;;;;;;;;6245223;22;45638;-91
2022/09/29 07:15:14;;;;;;;;;0.00;0.00;;;;;;;;6244545;22;47129;-92
2022/09/29 07:17:39;;;;;;;;;0.00;0.00;;;;;;;;6272386;22;45556;-91
2022/09/29 07:20:04;;;;;;;;;0.00;0.00;;;;;;;;6246061;22;45545;-92
2022/09/29 07:22:29;;;;;;;;;0.00;0.00;;;;;;;;6244546;22;45496;-94
2022/09/29 07:24:55;;;;;;;;;0.00;0.00;;;;;;;;6273186;22;45534;-94
2022/09/29 07:27:23;;;;;;;;;0.00;0.00;;;;;;;;6273428;22;45376;-93
2022/09/29 07:29:48;;;;;;;;;0.00;0.00;;;;;;;;6276345;22;45358;-94
2022/09/29 07:32:13;;;;;;;;;0.00;0.00;;;;;;;;6249939;22;45476;-94
2022/09/29 07:34:41;;;;;;;;;0.00;0.00;;;;;;;;6243010;22;46794;-93
2022/09/29 07:37:06;;;;;;;;;0.00;0.00;;;;;;;;6274832;22;45318;-93
2022/09/29 07:39:31;;;;;;;;;0.00;0.00;;;;;;;;6247480;22;45412;-90
2022/09/29 07:41:57;;;;;;;;;0.00;0.00;;;;;;;;6246923;22;45320;-90
2022/09/29 07:44:22;;;;;;;;;0.00;0.00;;;;;;;;6270804;22;45361;-90
2022/09/29 07:46:48;;;;;;;;;0.00;0.00;;;;;;;;6269118;22;45274;-90
2022/09/29 07:49:13;;;;;;;;;0.00;0.00;;;;;;;;6245353;22;45314;-94
2022/09/29 07:51:39;;;;;;;;;0.00;0.00;;;;;;;;6245836;22;45371;-92
2022/09/29 07:54:04;;;;;;;;;0.00;0.00;;;;;;;;6245401;22;48053;-91
2022/09/29 07:56:29;;;;;;;;;0.00;0.00;;;;;;;;6246011;22;46011;-92
2022/09/29 07:58:55;;;;;;;;;0.00;0.00;;;;;;;;6247858;22;45261;-92
2022/09/29 08:01:21;;;;;;;;;0.00;0.00;;;;;;;;6246616;22;45679;-91
2022/09/29 08:03:51;;;;;;;;;0.00;0.00;;;;;;;;6247461;22;47045;-92
2022/09/29 08:06:16;;;;;;;;;0.00;0.00;;;;;;;;6277125;22;45325;-92
2022/09/29 08:08:42;;;;;;;;;0.00;0.00;;;;;;;;6276453;22;45174;-91
2022/09/29 08:11:09;;;;;;;;;0.00;0.00;;;;;;;;6277744;22;45352;-92
2022/09/29 08:13:36;;;;;;;;;0.00;0.00;;;;;;;;6248821;22;47812;-91
2022/09/29 08:16:02;;;;;;;;;0.00;0.00;;;;;;;;6248437;22;45876;-91
2022/09/29 08:18:28;;;;;;;;;0.00;0.00;;;;;;;;6276532;22;45424;-93
2022/09/29 08:20:53;;;;;;;;;0.00;0.00;;;;;;;;6248192;22;45674;-93
2022/09/29 08:23:19;;;;;;;;;0.00;0.00;;;;;;;;6277103;22;45388;-93
2022/09/29 08:25:44;;;;;;;;;0.00;0.00;;;;;;;;6248084;22;45355;-92
2022/09/29 08:28:10;;;;;;;;;0.00;0.00;;;;;;;;6274055;22;45712;-92
2022/09/29 08:30:37;;;;;;;;;0.00;0.00;;;;;;;;6274649;22;45549;-92
2022/09/29 08:33:02;;;;;;;;;0.00;0.00;;;;;;;;6245335;22;46846;-92
2022/09/29 08:35:28;;;;;;;;;0.00;0.00;;;;;;;;6273023;22;45673;-91
2022/09/29 08:37:53;;;;;;;;;0.00;0.00;;;;;;;;6273364;22;45306;-92
2022/09/29 08:40:19;;;;;;;;;0.00;0.00;;;;;;;;6272381;22;45451;-91
2022/09/29 08:42:49;;;;;;;;;0.00;0.00;;;;;;;;6245943;22;46885;-93
2022/09/29 08:45:21;;;;;;;;;0.00;0.00;;;;;;;;6272282;22;45356;-90
2022/09/29 08:47:49;;;;;;;;;0.00;0.00;;;;;;;;6245723;22;45304;-92
2022/09/29 08:50:20;;;;;;;;;0.00;0.00;;;;;;;;6246185;22;45792;-91
2022/09/29 08:52:49;;;;;;;;;0.00;0.00;;;;;;;;6244856;22;47691;-92
2022/09/29 08:55:17;;;;;;;;;0.00;0.00;;;;;;;;6245175;22;45609;-91
2022/09/29 08:57:44;;;;;;;;;0.00;0.00;;;;;;;;6273438;22;45631;-90
2022/09/29 09:00:11;;;;;;;;;0.00;0.00;;;;;;;;6273105;22;45476;-91
2022/09/29 09:02:39;;;;;;;;;0.00;0.00;;;;;;;;6244433;22;47285;-91
2022/09/29 09:05:18;;;;;;;;;0.00;0.00;;;;;;;;6271754;22;45424;-89
2022/09/29 09:07:50;;;;;;;;;0.00;0.00;;;;;;;;6272080;22;45318;-91
2022/09/29 09:10:33;;;;;;;;;0.00;0.00;;;;;;;;6269227;22;45342;-92
2022/09/29 09:13:01;;;;;;;;;0.00;0.00;;;;;;;;6244888;22;48388;-92
2022/09/29 09:15:35;;;;;;;;;0.00;0.00;;;;;;;;6272485;22;45704;-91
2022/09/29 09:18:03;;;;;;;;;0.00;0.00;;;;;;;;6273010;22;45226;-90
2022/09/29 09:20:31;;;;;;;;;0.00;0.00;;;;;;;;6243993;22;45509;-91
2022/09/29 09:22:56;;;;;;;;;0.00;0.00;;;;;;;;6271002;22;45349;-91
2022/09/29 09:25:40;;;;;;;;;0.00;0.00;;;;;;;;6272102;22;45329;-90
2022/09/29 09:28:05;;;;;;;;;0.00;0.00;;;;;;;;6271739;22;45707;-91
2022/09/29 09:30:39;;;;;;;;;0.00;0.00;;;;;;;;6244904;22;45464;-91
2022/09/29 09:33:09;;;;;;;;;0.00;0.00;;;;;;;;6245086;22;48461;-91
2022/09/29 09:35:37;;;;;;;;;0.00;0.00;;;;;;;;6243967;22;45394;-90
2022/09/29 09:38:07;;;;;;;;;0.00;0.00;;;;;;;;6245193;22;45624;-91
2022/09/29 09:40:41;;;;;;;;;0.00;0.00;;;;;;;;6271065;22;45311;-91
2022/09/29 09:43:11;;;;;;;;;0.00;0.00;;;;;;;;6243807;22;48422;-90
2022/09/29 09:45:42;;;;;;;;;0.00;0.00;;;;;;;;6270979;22;45337;-92
2022/09/29 09:48:13;;;;;;;;;0.00;0.00;;;;;;;;6244044;22;45322;-90
2022/09/29 09:50:41;;;;;;;;;0.00;0.00;;;;;;;;6271545;22;45390;-91
2022/09/29 09:53:16;;;;;;;;;0.00;0.00;;;;;;;;6272346;22;45378;-92
2022/09/29 09:55:42;;;;;;;;;0.00;0.00;;;;;;;;6244607;22;45451;-92
2022/09/29 09:58:29;;;;;;;;;0.00;0.00;;;;;;;;6246338;22;45243;-92
2022/09/29 10:01:00;;;;;;;;;0.00;0.00;;;;;;;;6272710;22;45353;-92
2022/09/29 10:03:26;;;;;;;;;0.00;0.00;;;;;;;;6271473;22;45411;-92
2022/09/29 10:05:52;;;;;;;;;0.00;0.00;;;;;;;;6271513;22;45388;-92
2022/09/29 10:08:22;;;;;;;;;0.00;0.00;;;;;;;;6271893;22;45304;-91
2022/09/29 10:10:47;;;;;;;;;0.00;0.00;;;;;;;;6269823;22;45314;-93
2022/09/29 10:13:13;;;;;;;;;0.00;0.00;;;;;;;;6242354;22;47428;-92
2022/09/29 10:15:48;;;;;;;;;0.00;0.00;;;;;;;;6243222;22;45820;-92
2022/09/29 10:18:18;;;;;;;;;0.00;0.00;;;;;;;;6243451;22;45557;-89
2022/09/29 10:20:43;;;;;;;;;0.00;0.00;;;;;;;;6244790;22;45618;-91
2022/09/29 10:23:25;;;;;;;;;0.00;0.00;;;;;;;;6243097;22;48467;-91
2022/09/29 10:25:53;;;;;;;;;0.00;0.00;;;;;;;;6242306;22;45438;-92
2022/09/29 10:28:18;;;;;;;;;0.00;0.00;;;;;;;;6238108;22;45358;-94
2022/09/29 10:30:44;;;;;;;;;0.00;0.00;;;;;;;;6243590;22;45373;-93
2022/09/29 10:33:13;;;;;;;;;0.00;0.00;;;;;;;;6241919;22;45277;-92
2022/09/29 10:35:40;;;;;;;;;0.00;0.00;;;;;;;;6238603;22;45321;-92
2022/09/29 10:38:06;;;;;;;;;0.00;0.00;;;;;;;;6240500;22;45694;-89
2022/09/29 10:40:32;;;;;;;;;0.00;0.00;;;;;;;;6244415;22;45346;-91
2022/09/29 10:42:57;;;;;;;;;0.00;0.00;;;;;;;;6240750;22;45952;-89
2022/09/29 10:45:27;;;;;;;;;0.00;0.00;;;;;;;;6239773;22;45426;-86
2022/09/29 10:47:58;;;;;;;;;0.00;0.00;;;;;;;;6242011;22;45317;-88
2022/09/29 10:50:26;;;;;;;;;0.00;0.00;;;;;;;;6238297;22;45378;-89
2022/09/29 10:52:53;;;;;;;;;0.00;0.00;;;;;;;;6239819;22;45310;-88
2022/09/29 10:55:20;;;;;;;;;0.00;0.00;;;;;;;;6238453;22;45298;-94
2022/09/29 10:57:46;;;;;;;;;0.00;0.00;;;;;;;;6244768;22;45320;-95
2022/09/29 11:00:30;;;;;;;;;0.00;0.00;;;;;;;;6239228;22;45346;-89
2022/09/29 11:03:05;;;;;;;;;0.00;0.00;;;;;;;;6239280;22;45358;-88
2022/09/29 11:05:30;;;;;;;;;0.00;0.00;;;;;;;;6239649;22;45312;-89
2022/09/29 11:07:56;;;;;;;;;0.00;0.00;;;;;;;;6237268;22;45335;-88
2022/09/29 11:10:30;;;;;;;;;0.00;0.00;;;;;;;;6236569;22;45320;-88
2022/09/29 11:12:58;;;;;;;;;0.00;0.00;;;;;;;;6238668;22;47103;-91
2022/09/29 11:15:26;;;;;;;;;0.00;0.00;;;;;;;;6241131;22;45741;-93
2022/09/29 11:17:52;;;;;;;;;0.00;0.00;;;;;;;;6239747;22;45418;-89
2022/09/29 11:20:17;;;;;;;;;0.00;0.00;;;;;;;;6239186;22;45420;-89
2022/09/29 11:22:49;;;;;;;;;0.00;0.00;;;;;;;;6238940;22;48055;-93
2022/09/29 11:25:30;;;;;;;;;0.00;0.00;;;;;;;;6239477;22;45490;-91
2022/09/29 11:28:14;;;;;;;;;0.00;0.00;;;;;;;;6261753;22;45337;-90
2022/09/29 11:30:39;;;;;;;;;0.00;0.00;;;;;;;;6246675;22;45225;-94
2022/09/29 11:33:17;;;;;;;;;0.00;0.00;;;;;;;;6247046;22;47086;-95
2022/09/29 11:36:01;;;;;;;;;0.00;0.00;;;;;;;;6252905;22;45377;-94
2022/09/29 11:38:54;;;;;;;;;0.00;0.00;;;;;;;;6279769;22;45811;-96
2022/09/29 11:44:18;;;;;;;;;0.00;0.00;;;;;;;;6288095;22;46377;-96
2022/09/29 11:47:12;;;;;;;;;0.00;0.00;;;;;;;;6319960;22;8807;-96
2022/09/29 11:49:41;;;;;;;;;0.00;0.00;;;;;;;;6310367;22;8744;-96
2022/09/29 11:52:09;;;;;;;;;0.00;0.00;;;;;;;;6322154;22;8776;-96
2022/09/29 11:54:40;;;;;;;;;0.00;0.00;;;;;;;;6302508;22;8691;-96
2022/09/29 11:57:29;;;;;;;;;0.00;0.00;;;;;;;;6301484;22;11370;-96
2022/09/29 11:59:55;;;;;;;;;0.00;0.00;;;;;;;;6275018;22;11414;-96
2022/09/29 12:02:26;;;;;;;;;0.00;0.00;;;;;;;;6290764;22;11558;-96
2022/09/29 12:05:10;;;;;;;;;0.00;0.00;;;;;;;;6296508;22;8768;-96
2022/09/29 12:07:45;;;;;;;;;0.00;0.00;;;;;;;;6303560;22;11432;-96
2022/09/29 12:10:21;;;;;;;;;0.00;0.00;;;;;;;;6301127;22;11424;-96
2022/09/29 12:12:54;;;;;;;;;0.00;0.00;;;;;;;;6300054;22;8700;-96
2022/09/29 12:15:20;;;;;;;;;0.00;0.00;;;;;;;;6297347;22;11463;-96
2022/09/29 12:17:48;;;;;;;;;0.00;0.00;;;;;;;;6289958;22;8701;-96
2022/09/29 12:20:17;;;;;;;;;0.00;0.00;;;;;;;;6294372;22;8747;-96
2022/09/29 12:22:44;;;;;;;;;0.00;0.00;;;;;;;;6296885;22;11350;-96
2022/09/29 12:25:14;;;;;;;;;0.00;0.00;;;;;;;;6294671;22;11327;-96
2022/09/29 12:27:41;;;;;;;;;0.00;0.00;;;;;;;;6294124;22;8740;-96
2022/09/29 12:30:14;;;;;;;;;0.00;0.00;;;;;;;;6292778;22;8760;-94
2022/09/29 12:32:57;;;;;;;;;0.00;0.00;;;;;;;;6291397;22;8771;-95
2022/09/29 12:35:31;;;;;;;;;0.00;0.00;;;;;;;;6290814;22;11338;-96
2022/09/29 12:38:13;;;;;;;;;0.00;0.00;;;;;;;;6288168;22;11409;-94
2022/09/29 12:40:42;;;;;;;;;0.00;0.00;;;;;;;;6288485;22;11503;-95
2022/09/29 12:43:07;;;;;;;;;0.00;0.00;;;;;;;;6289129;22;11465;-95
2022/09/29 12:45:42;;;;;;;;;0.00;0.00;;;;;;;;6288099;22;11406;-96
2022/09/29 12:48:16;;;;;;;;;0.00;0.00;;;;;;;;6289199;22;9163;-95
2022/09/29 12:50:45;;;;;;;;;0.00;0.00;;;;;;;;6289596;22;11452;-96
2022/09/29 12:53:29;;;;;;;;;0.00;0.00;;;;;;;;6287166;22;11361;-96
2022/09/29 12:55:57;;;;;;;;;0.00;0.00;;;;;;;;6287500;22;11315;-95
2022/09/29 12:58:30;;;;;;;;;0.00;0.00;;;;;;;;6288456;22;8752;-96
2022/09/29 13:01:00;;;;;;;;;0.00;0.00;;;;;;;;6289329;22;11389;-96
2022/09/29 13:03:38;;;;;;;;;0.00;0.00;;;;;;;;6289163;22;11528;-96
2022/09/29 13:06:23;;;;;;;;;0.00;0.00;;;;;;;;6289312;22;11485;-96
2022/09/29 13:08:48;;;;;;;;;0.00;0.00;;;;;;;;6289506;22;11378;-96
2022/09/29 13:11:23;;;;;;;;;0.00;0.00;;;;;;;;6288880;22;11444;-96
2022/09/29 13:13:48;;;;;;;;;0.00;0.00;;;;;;;;6289827;22;8756;-96
2022/09/29 13:16:24;;;;;;;;;0.00;0.00;;;;;;;;6288286;22;11402;-95
2022/09/29 13:19:09;;;;;;;;;0.00;0.00;;;;;;;;6288146;22;8822;-96
2022/09/29 13:22:05;;;;;;;;;3.00;3.00;;;;;;;;6286830;22;11410;-96
2022/09/29 13:24:53;;;;;;;;;0.00;0.00;;;;;;;;6169977;23;8734;-96
2022/09/29 13:27:41;;;;;;;;;0.00;0.00;;;;;;;;6078105;23;11577;-96
2022/09/29 13:30:09;;;;;;;;;0.00;0.00;;;;;;;;6080418;23;11530;-96
2022/09/29 13:32:39;;;;;;;;;0.00;0.00;;;;;;;;6078568;23;11600;-96
2022/09/29 13:35:11;;;;;;;;;0.00;0.00;;;;;;;;6078976;23;11510;-96
2022/09/29 13:37:47;;;;;;;;;0.00;0.00;;;;;;;;6078401;23;11553;-96
2022/09/29 13:40:18;;;;;;;;;0.00;0.00;;;;;;;;6079070;23;11456;-96
2022/09/29 13:42:44;;;;;;;;;0.00;0.00;;;;;;;;6079084;23;11498;-96
2022/09/29 13:45:14;;;;;;;;;0.00;0.00;;;;;;;;6079946;23;11483;-96
2022/09/29 13:47:44;;;;;;;;;0.00;0.00;;;;;;;;6081068;23;11424;-95
2022/09/29 13:50:28;;;;;;;;;0.00;0.00;;;;;;;;6078213;23;12616;-96
2022/09/29 13:52:53;;;;;;;;;0.00;0.00;;;;;;;;6079541;23;11531;-96
2022/09/29 13:55:41;;;;;;;;;0.00;0.00;;;;;;;;6078553;23;11519;-96
2022/09/29 13:58:19;;;;;;;;;0.00;0.00;;;;;;;;5966319;24;8809;-96
2022/09/29 14:00:44;;;;;;;;;0.00;0.00;;;;;;;;5986009;23;11358;-96
2022/09/29 14:03:28;;;;;;;;;0.00;0.00;;;;;;;;6065324;23;11421;-96
2022/09/29 14:05:54;;;;;;;;;0.00;0.00;;;;;;;;6176604;23;8877;-96
2022/09/29 14:08:23;;;;;;;;;0.00;0.00;;;;;;;;6174463;23;11410;-96
2022/09/29 14:11:05;;;;;;;;;0.00;0.00;;;;;;;;6179340;23;11308;-96
2022/09/29 14:13:33;;;;;;;;;0.00;0.00;;;;;;;;6184689;23;11301;-96
2022/09/29 14:16:05;;;;;;;;;0.00;0.00;;;;;;;;6169467;23;11318;-96
2022/09/29 14:19:06;;;;;;;;;0.00;0.00;;;;;;;;6178393;23;11305;-96
2022/09/29 14:21:49;;;;;;;;;0.00;0.00;;;;;;;;6187067;23;11303;-95
2022/09/29 14:24:36;;;;;;;;;0.00;0.00;;;;;;;;6208219;23;11333;-95
2022/09/29 14:27:20;;;;;;;;;0.00;0.00;;;;;;;;6203911;22;11493;-96
2022/09/29 14:29:55;;;;;;;;;0.00;0.00;;;;;;;;6304438;22;11375;-96
2022/09/29 14:32:31;;;;;;;;;0.00;0.00;;;;;;;;6334453;22;11454;-96
2022/09/29 14:34:57;;;;;;;;;0.00;0.00;;;;;;;;6303975;22;11366;-95
2022/09/29 14:37:26;;;;;;;;;0.00;0.00;;;;;;;;6307541;22;11387;-96
2022/09/29 14:42:37;;;;;;;;;0.00;0.00;;;;;;;;6343036;22;11352;-96
2022/09/29 14:53:55;;;;;;;;;0.00;0.00;;;;;;;;6201800;23;11445;-96
2022/09/29 14:56:44;;;;;;;;;0.00;0.00;;;;;;;;6171053;23;11428;-95
2022/09/29 14:59:28;;;;;;;;;0.00;0.00;;;;;;;;6172651;23;11393;-95
2022/09/29 15:02:12;;;;;;;;;0.00;0.00;;;;;;;;6171262;23;11442;-96
2022/09/29 15:04:38;;;;;;;;;0.00;0.00;;;;;;;;6177187;23;11405;-96
2022/09/29 15:07:03;;;;;;;;;0.00;0.00;;;;;;;;6178674;23;11472;-95
2022/09/29 15:09:34;;;;;;;;;0.00;0.00;;;;;;;;6180719;23;11461;-95
2022/09/29 15:12:03;;;;;;;;;0.00;0.00;;;;;;;;6202854;23;8750;-95
2022/09/29 15:14:28;;;;;;;;;0.00;0.00;;;;;;;;6198647;23;11439;-96
2022/09/29 15:17:17;;;;;;;;;0.00;0.00;;;;;;;;6174723;23;11464;-96
2022/09/29 15:19:56;;;;;;;;;0.00;0.00;;;;;;;;6200372;23;8855;-96
2022/09/29 15:22:22;;;;;;;;;0.00;0.00;;;;;;;;6203266;23;11449;-96
2022/09/29 15:25:15;;;;;;;;;0.00;0.00;;;;;;;;6203524;23;11565;-96
2022/09/29 15:27:43;;;;;;;;;0.00;0.00;;;;;;;;6265276;22;8700;-96
2022/09/29 15:30:15;;;;;;;;;0.00;0.00;;;;;;;;6303310;22;11363;-95
2022/09/29 15:32:41;;;;;;;;;1.00;1.00;;;;;;;;6304081;22;11378;-96
2022/09/29 15:35:07;;;;;;;;;0.00;0.00;;;;;;;;6279199;22;11382;-96
2022/09/29 15:37:59;;;;;;;;;0.00;0.00;;;;;;;;6303426;22;8681;-96
2022/09/29 15:40:25;;;;;;;;;0.00;0.00;;;;;;;;6176880;23;11531;-96
2022/09/29 15:42:54;;;;;;;;;0.00;0.00;;;;;;;;6182321;23;11528;-95
2022/09/29 15:45:21;;;;;;;;;0.00;0.00;;;;;;;;6178199;23;8739;-96
2022/09/29 15:47:47;;;;;;;;;0.00;0.00;;;;;;;;6174413;23;11496;-96
2022/09/29 15:50:17;;;;;;;;;0.00;0.00;;;;;;;;6175940;23;11472;-96
2022/09/29 15:52:43;;;;;;;;;0.00;0.00;;;;;;;;6180308;23;8862;-95
2022/09/29 15:55:11;;;;;;;;;0.00;0.00;;;;;;;;6201678;23;11453;-96
2022/09/29 15:57:42;;;;;;;;;0.00;0.00;;;;;;;;6176387;23;8757;-95
2022/09/29 16:00:20;;;;;;;;;0.00;0.00;;;;;;;;6171717;23;11548;-95
2022/09/29 16:02:47;;;;;;;;;0.33;0.33;;;;;;;;6203272;23;11432;-95
2022/09/29 16:05:14;;;;;;;;;0.00;0.00;;;;;;;;6173359;23;11441;-96
2022/09/29 16:08:00;;;;;;;;;0.00;0.00;;;;;;;;6171642;23;11390;-95
2022/09/29 16:10:39;;;;;;;;;0.00;0.00;;;;;;;;6184754;23;11453;-94
2022/09/29 16:13:07;;;;;;;;;0.00;0.00;;;;;;;;6165550;23;11434;-94
2022/09/29 16:15:41;;;;;;;;;0.00;0.00;;;;;;;;6169767;23;12267;-94
2022/09/29 16:18:17;;;;;;;;;0.00;0.00;;;;;;;;6283025;22;11410;-96
2022/09/29 16:20:43;;;;;;;;;0.00;0.00;;;;;;;;6297457;22;11375;-96
2022/09/29 16:23:15;;;;;;;;;0.00;0.00;;;;;;;;6324281;22;11433;-96
2022/09/29 16:25:41;;;;;;;;;0.00;0.00;;;;;;;;6296110;22;8753;-96
2022/09/29 16:28:22;;;;;;;;;0.00;0.00;;;;;;;;6307970;22;11486;-93
2022/09/29 16:30:59;;;;;;;;;0.00;0.00;;;;;;;;6320500;22;8810;-95
2022/09/29 16:33:24;;;;;;;;;0.00;0.00;;;;;;;;6322904;22;11399;-94
2022/09/29 16:35:52;;;;;;;;;0.00;0.00;;;;;;;;6322657;22;11453;-94
2022/09/29 16:38:21;;;;;;;;;0.00;0.00;;;;;;;;6319524;22;8802;-93
2022/09/29 16:40:46;;;;;;;;;0.00;0.00;;;;;;;;6319623;22;11416;-93
2022/09/29 16:43:22;;;;;;;;;0.00;0.00;;;;;;;;6316111;22;11365;-94
2022/09/29 16:45:49;;;;;;;;;0.00;0.00;;;;;;;;6314025;22;8737;-94
2022/09/29 16:48:14;;;;;;;;;0.00;0.00;;;;;;;;6315280;22;11396;-93
2022/09/29 16:50:44;;;;;;;;;0.00;0.00;;;;;;;;6316834;22;11385;-93
2022/09/29 16:53:20;;;;;;;;;0.00;0.00;;;;;;;;6318434;22;8733;-93
2022/09/29 16:55:54;;;;;;;;;0.00;0.00;;;;;;;;6320622;22;11403;-93
2022/09/29 16:58:19;;;;;;;;;0.00;0.00;;;;;;;;6321006;22;11347;-93
2022/09/29 17:00:46;;;;;;;;;0.00;0.00;;;;;;;;6317778;22;11407;-92
2022/09/29 17:03:13;;;;;;;;;0.00;0.00;;;;;;;;6318948;22;8752;-92
2022/09/29 17:05:42;;;;;;;;;0.00;0.00;;;;;;;;6321711;22;11358;-92
2022/09/29 17:08:13;;;;;;;;;0.00;0.00;;;;;;;;6293459;22;11365;-93
2022/09/29 17:10:38;;;;;;;;;0.00;0.00;;;;;;;;6319168;22;11428;-92
2022/09/29 17:13:09;;;;;;;;;0.00;0.00;;;;;;;;6318402;22;11397;-92
2022/09/29 17:15:34;;;;;;;;;0.00;0.00;;;;;;;;6320140;22;8701;-92
2022/09/29 17:17:59;;;;;;;;;0.00;0.00;;;;;;;;6316827;22;12115;-92
2022/09/29 17:20:28;;;;;;;;;0.00;0.00;;;;;;;;6315629;22;8875;-91
2022/09/29 17:22:53;;;;;;;;;0.00;0.00;;;;;;;;6318154;22;8729;-93
2022/09/29 17:25:18;;;;;;;;;0.00;0.00;;;;;;;;6318062;22;11507;-94
2022/09/29 17:30:28;;;;;;;;;0.00;0.00;;;;;;;;6317823;22;8749;-93
2022/09/29 17:32:54;;;;;;;;;0.00;0.00;;;;;;;;6317369;22;11411;-92
2022/09/29 17:35:21;;;;;;;;;0.00;0.00;;;;;;;;6316574;22;8799;-93
2022/09/29 17:37:47;;;;;;;;;0.00;0.00;;;;;;;;6317456;22;11357;-92
2022/09/29 17:40:30;;;;;;;;;0.00;0.00;;;;;;;;6320606;22;11412;-92
2022/09/29 17:42:58;;;;;;;;;0.00;0.00;;;;;;;;6308734;22;9511;-93
2022/09/29 17:45:24;;;;;;;;;0.00;0.00;;;;;;;;6317698;22;12250;-91
2022/09/29 17:47:49;;;;;;;;;0.00;0.00;;;;;;;;6316519;22;11382;-93
2022/09/29 17:50:18;;;;;;;;;0.00;0.00;;;;;;;;6316570;22;11451;-93
2022/09/29 17:52:43;;;;;;;;;0.00;0.00;;;;;;;;6316793;22;8696;-95
2022/09/29 17:55:10;;;;;;;;;0.00;0.00;;;;;;;;6318847;22;11493;-96
2022/09/29 17:57:37;;;;;;;;;0.00;0.00;;;;;;;;6318950;22;8718;-92
2022/09/29 18:00:02;;;;;;;;;0.00;0.00;;;;;;;;6315915;22;11429;-92
2022/09/29 18:02:28;;;;;;;;;0.00;0.00;;;;;;;;6321193;22;11423;-92
2022/09/29 18:04:56;;;;;;;;;0.00;0.00;;;;;;;;6321131;22;8734;-94
2022/09/29 18:07:21;;;;;;;;;0.00;0.00;;;;;;;;6319787;22;8729;-93
2022/09/29 18:09:46;;;;;;;;;0.00;0.00;;;;;;;;6323360;22;12391;-94
2022/09/29 18:12:12;;;;;;;;;0.00;0.00;;;;;;;;6322560;22;8973;-93
2022/09/29 18:14:37;;;;;;;;;0.00;0.00;;;;;;;;6322381;22;8757;-95
2022/09/29 18:17:04;;;;;;;;;0.00;0.00;;;;;;;;6319917;22;8737;-96
2022/09/29 18:19:30;;;;;;;;;0.00;0.00;;;;;;;;6327004;22;8779;-93
2022/09/29 18:21:57;;;;;;;;;0.00;0.00;;;;;;;;6324636;22;11388;-95
2022/09/29 18:24:22;;;;;;;;;0.00;0.00;;;;;;;;6320443;22;8745;-94
2022/09/29 18:26:47;;;;;;;;;0.00;0.00;;;;;;;;6318692;22;11447;-94
2022/09/29 18:29:14;;;;;;;;;0.00;0.00;;;;;;;;6320935;22;8790;-91
2022/09/29 18:31:39;;;;;;;;;0.00;0.00;;;;;;;;6318437;22;8737;-93
2022/09/29 18:34:04;;;;;;;;;0.00;0.00;;;;;;;;6319865;22;11352;-91
2022/09/29 18:36:30;;;;;;;;;0.00;0.00;;;;;;;;6318930;22;8744;-90
2022/09/29 18:38:55;;;;;;;;;0.00;0.00;;;;;;;;6288172;22;8855;-90
2022/09/29 18:41:21;;;;;;;;;0.00;0.00;;;;;;;;6289231;22;8884;-90
2022/09/29 18:43:47;;;;;;;;;0.00;0.00;;;;;;;;6290641;22;8725;-91
2022/09/29 18:46:13;;;;;;;;;0.00;0.00;;;;;;;;6289849;22;11409;-90
2022/09/29 18:48:38;;;;;;;;;0.00;0.00;;;;;;;;6317909;22;8732;-92
2022/09/29 18:51:03;;;;;;;;;0.00;0.00;;;;;;;;6317782;22;12112;-92
2022/09/29 18:53:28;;;;;;;;;0.00;0.00;;;;;;;;6317317;22;8729;-91
2022/09/29 18:55:58;;;;;;;;;0.00;0.00;;;;;;;;6291127;22;8836;-93
2022/09/29 18:58:23;;;;;;;;;0.00;0.00;;;;;;;;6291012;22;8913;-93
2022/09/29 19:00:52;;;;;;;;;0.00;0.00;;;;;;;;6293659;22;11383;-92
2022/09/29 19:03:18;;;;;;;;;0.00;0.00;;;;;;;;6293541;22;8740;-95
2022/09/29 19:05:43;;;;;;;;;0.00;0.00;;;;;;;;6293710;22;11356;-94
2022/09/29 19:08:10;;;;;;;;;0.00;0.00;;;;;;;;6292374;22;8854;-92
2022/09/29 19:10:35;;;;;;;;;0.00;0.00;;;;;;;;6293206;22;8760;-94
2022/09/29 19:13:03;;;;;;;;;0.00;0.00;;;;;;;;6322746;22;11391;-95
2022/09/29 19:15:29;;;;;;;;;0.00;0.00;;;;;;;;6301223;22;8719;-94
2022/09/29 19:17:57;;;;;;;;;0.00;0.00;;;;;;;;6295210;22;11356;-95
2022/09/29 19:20:23;;;;;;;;;0.00;0.00;;;;;;;;6322460;22;11307;-95
2022/09/29 19:22:49;;;;;;;;;0.00;0.00;;;;;;;;6291695;22;11340;-90
2022/09/29 19:25:20;;;;;;;;;0.00;0.00;;;;;;;;6316366;22;12268;-89
2022/09/29 19:27:45;;;;;;;;;0.00;0.00;;;;;;;;6318195;22;8752;-90
2022/09/29 19:30:12;;;;;;;;;0.00;0.00;;;;;;;;6289576;22;11403;-89
2022/09/29 19:32:37;;;;;;;;;0.00;0.00;;;;;;;;6289648;22;8744;-90
2022/09/29 19:35:03;;;;;;;;;0.00;0.00;;;;;;;;6289219;22;11392;-89
2022/09/29 19:37:28;;;;;;;;;0.00;0.00;;;;;;;;6288667;22;8776;-90
2022/09/29 19:39:56;;;;;;;;;0.00;0.00;;;;;;;;6316062;22;8837;-89
2022/09/29 19:42:22;;;;;;;;;0.00;0.00;;;;;;;;6289270;22;8733;-90
2022/09/29 19:44:50;;;;;;;;;0.00;0.00;;;;;;;;6317846;22;8772;-90
2022/09/29 19:47:15;;;;;;;;;0.00;0.00;;;;;;;;6316813;22;8827;-90
2022/09/29 19:49:41;;;;;;;;;0.00;0.00;;;;;;;;6289285;22;11831;-90
2022/09/29 19:52:06;;;;;;;;;0.00;0.00;;;;;;;;6317891;22;8763;-90
2022/09/29 19:54:32;;;;;;;;;0.00;0.00;;;;;;;;6289027;22;8856;-91
2022/09/29 19:56:59;;;;;;;;;0.00;0.00;;;;;;;;6289807;22;8740;-90
2022/09/29 19:59:27;;;;;;;;;0.00;0.00;;;;;;;;6318572;22;8712;-88
2022/09/29 20:01:53;;;;;;;;;0.00;0.00;;;;;;;;6288198;22;8817;-90
2022/09/29 20:04:19;;;;;;;;;0.00;0.00;;;;;;;;6289513;22;8764;-90
2022/09/29 20:06:44;;;;;;;;;0.00;0.00;;;;;;;;6290547;22;8732;-90
2022/09/29 20:09:10;;;;;;;;;0.00;0.00;;;;;;;;6295427;22;45513;-90
2022/09/29 20:11:36;;;;;;;;;0.00;0.00;;;;;;;;6290471;22;8748;-90
2022/09/29 20:14:03;;;;;;;;;0.00;0.00;;;;;;;;6318694;22;8713;-91
2022/09/29 20:16:32;;;;;;;;;0.00;0.00;;;;;;;;6289830;22;11405;-90
2022/09/29 20:18:57;;;;;;;;;0.00;0.00;;;;;;;;6290692;22;11429;-90
2022/09/29 20:21:23;;;;;;;;;0.00;0.00;;;;;;;;6317243;22;8780;-90
2022/09/29 20:23:48;;;;;;;;;0.00;0.00;;;;;;;;6317258;22;8744;-90
2022/09/29 20:26:14;;;;;;;;;0.00;0.00;;;;;;;;6318985;22;8855;-90
2022/09/29 20:28:39;;;;;;;;;0.00;0.00;;;;;;;;6309531;22;10281;-89
2022/09/29 20:31:06;;;;;;;;;0.00;0.00;;;;;;;;6318806;22;8768;-92
2022/09/29 20:33:32;;;;;;;;;0.00;0.00;;;;;;;;6317355;22;8718;-91
2022/09/29 20:35:58;;;;;;;;;0.00;0.00;;;;;;;;6317931;22;11463;-91
2022/09/29 20:38:23;;;;;;;;;0.00;0.00;;;;;;;;6317839;22;8752;-90
2022/09/29 20:40:48;;;;;;;;;0.00;0.00;;;;;;;;6315903;22;11418;-90
2022/09/29 20:43:14;;;;;;;;;0.00;0.00;;;;;;;;6317104;22;8730;-91
2022/09/29 20:45:40;;;;;;;;;0.00;0.00;;;;;;;;6318354;22;8969;-90
2022/09/29 20:48:05;;;;;;;;;0.00;0.00;;;;;;;;6316884;22;8737;-92
2022/09/29 20:50:30;;;;;;;;;0.00;0.00;;;;;;;;6317253;22;8826;-93
2022/09/29 20:52:55;;;;;;;;;0.00;0.00;;;;;;;;6323696;22;8753;-90
2022/09/29 20:55:20;;;;;;;;;0.00;0.00;;;;;;;;6316891;22;8773;-89
2022/09/29 20:57:47;;;;;;;;;0.00;0.00;;;;;;;;6318439;22;8753;-92
2022/09/29 21:00:13;;;;;;;;;0.00;0.00;;;;;;;;6317085;22;8769;-92
2022/09/29 21:02:39;;;;;;;;;0.00;0.00;;;;;;;;6316843;22;8871;-92
2022/09/29 21:05:04;;;;;;;;;0.00;0.00;;;;;;;;6316726;22;8768;-91
